createdAt,value
2017-04-02T00:00:06.615Z,0
2017-04-02T00:01:15.830Z,0
2017-04-02T00:02:26.067Z,0
2017-04-02T00:03:35.089Z,0
2017-04-02T00:04:44.797Z,0
2017-04-02T00:05:53.753Z,0
2017-04-02T00:07:03.474Z,0
2017-04-02T00:08:12.441Z,0
2017-04-02T00:09:22.128Z,0
2017-04-02T00:10:31.097Z,0
2017-04-02T00:11:41.090Z,0
2017-04-02T00:12:51.061Z,0
2017-04-02T00:14:00.022Z,0
2017-04-02T00:15:09.870Z,0
2017-04-02T00:16:20.426Z,0
2017-04-02T00:17:32.810Z,0
2017-04-02T00:18:42.384Z,0
2017-04-02T00:19:52.464Z,0
2017-04-02T00:21:01.563Z,0
2017-04-02T00:22:11.368Z,0
2017-04-02T00:23:21.371Z,0
2017-04-02T00:24:30.627Z,0
2017-04-02T00:25:41.054Z,0
2017-04-02T00:26:50.016Z,0
2017-04-02T00:27:59.761Z,0
2017-04-02T00:29:09.771Z,0
2017-04-02T00:30:20.163Z,0
2017-04-02T00:31:29.128Z,0
2017-04-02T00:32:38.799Z,0
2017-04-02T00:33:47.764Z,0
2017-04-02T00:34:57.952Z,0
2017-04-02T00:36:07.981Z,0
2017-04-02T00:37:17.131Z,0
2017-04-02T00:38:26.933Z,0
2017-04-02T00:39:35.894Z,0
2017-04-02T00:40:45.801Z,0
2017-04-02T00:41:56.385Z,0
2017-04-02T00:43:05.343Z,0
2017-04-02T00:44:15.736Z,0
2017-04-02T00:45:25.275Z,0
2017-04-02T00:46:34.323Z,0
2017-04-02T00:47:44.140Z,0
2017-04-02T00:48:53.096Z,0
2017-04-02T00:50:03.021Z,0
2017-04-02T00:51:13.913Z,0
2017-04-02T00:52:24.338Z,0
2017-04-02T00:53:34.573Z,0
2017-04-02T00:54:45.109Z,0
2017-04-02T00:55:54.113Z,0
2017-04-02T00:57:05.482Z,0
2017-04-02T00:58:17.181Z,0
2017-04-02T00:59:28.962Z,0
2017-04-02T01:00:39.274Z,0
2017-04-02T01:01:48.229Z,0
2017-04-02T01:02:58.157Z,0
2017-04-02T01:04:07.110Z,0
2017-04-02T01:05:17.545Z,0
2017-04-02T01:06:27.808Z,0
2017-04-02T01:07:36.857Z,0
2017-04-02T01:08:46.528Z,0
2017-04-02T01:09:56.948Z,0
2017-04-02T01:11:07.178Z,0
2017-04-02T01:12:16.288Z,0
2017-04-02T01:13:26.600Z,0
2017-04-02T01:14:36.294Z,0
2017-04-02T01:15:45.258Z,0
2017-04-02T01:16:55.126Z,0
2017-04-02T01:18:04.185Z,0
2017-04-02T01:19:13.980Z,0
2017-04-02T01:20:22.934Z,0
2017-04-02T01:21:32.961Z,0
2017-04-02T01:22:42.256Z,0
2017-04-02T01:23:51.695Z,0
2017-04-02T01:25:01.409Z,0
2017-04-02T01:26:11.603Z,0
2017-04-02T01:27:21.927Z,0
2017-04-02T01:28:32.781Z,0
2017-04-02T01:29:42.079Z,0
2017-04-02T01:30:51.075Z,0
2017-04-02T01:32:00.775Z,0
2017-04-02T01:33:09.916Z,0
2017-04-02T01:34:19.929Z,0
2017-04-02T01:35:29.980Z,0
2017-04-02T01:36:38.938Z,0
2017-04-02T01:37:49.008Z,0
2017-04-02T01:38:57.960Z,0
2017-04-02T01:40:08.046Z,0
2017-04-02T01:41:18.246Z,0
2017-04-02T01:42:27.210Z,0
2017-04-02T01:43:37.065Z,0
2017-04-02T01:44:46.205Z,0
2017-04-02T01:45:56.081Z,0
2017-04-02T01:47:05.033Z,0
2017-04-02T01:48:15.364Z,0
2017-04-02T01:49:25.336Z,0
2017-04-02T01:50:35.064Z,0
2017-04-02T01:51:46.175Z,0
2017-04-02T01:52:56.804Z,0
2017-04-02T01:54:06.472Z,0
2017-04-02T01:55:15.434Z,0
2017-04-02T01:56:24.391Z,0
2017-04-02T01:57:33.646Z,0
2017-04-02T01:58:42.605Z,0
2017-04-02T01:59:51.562Z,0
2017-04-02T02:01:00.517Z,0
2017-04-02T02:02:09.476Z,0
2017-04-02T02:03:18.732Z,0
2017-04-02T02:04:27.687Z,0
2017-04-02T02:05:36.643Z,0
2017-04-02T02:06:45.695Z,0
2017-04-02T02:07:54.648Z,0
2017-04-02T02:09:03.937Z,0
2017-04-02T02:10:12.903Z,0
2017-04-02T02:11:21.888Z,0
2017-04-02T02:12:30.848Z,0
2017-04-02T02:13:39.801Z,0
2017-04-02T02:14:49.059Z,0
2017-04-02T02:15:58.011Z,0
2017-04-02T02:17:06.966Z,0
2017-04-02T02:18:15.932Z,0
2017-04-02T02:19:24.975Z,0
2017-04-02T02:20:34.236Z,0
2017-04-02T02:21:43.191Z,0
2017-04-02T02:22:52.147Z,0
2017-04-02T02:24:01.100Z,0
2017-04-02T02:25:10.061Z,0
2017-04-02T02:26:19.335Z,0
2017-04-02T02:27:28.377Z,0
2017-04-02T02:28:37.331Z,0
2017-04-02T02:29:46.288Z,0
2017-04-02T02:30:55.248Z,0
2017-04-02T02:32:04.509Z,0
2017-04-02T02:33:13.465Z,0
2017-04-02T02:34:22.424Z,0
2017-04-02T02:35:31.385Z,0
2017-04-02T02:36:40.346Z,0
2017-04-02T02:37:49.604Z,0
2017-04-02T02:38:58.559Z,0
2017-04-02T02:40:07.519Z,0
2017-04-02T02:41:16.567Z,0
2017-04-02T02:42:25.530Z,0
2017-04-02T02:43:34.779Z,0
2017-04-02T02:44:43.733Z,0
2017-04-02T02:45:52.695Z,0
2017-04-02T02:47:01.651Z,0
2017-04-02T02:48:10.611Z,0
2017-04-02T02:49:19.959Z,0
2017-04-02T02:50:28.914Z,0
2017-04-02T02:51:37.871Z,0
2017-04-02T02:52:46.834Z,0
2017-04-02T02:53:55.827Z,0
2017-04-02T02:55:05.080Z,0
2017-04-02T02:56:14.127Z,0
2017-04-02T02:57:23.083Z,0
2017-04-02T02:58:32.126Z,0
2017-04-02T02:59:41.080Z,0
2017-04-02T03:00:50.298Z,0
2017-04-02T03:01:59.254Z,0
2017-04-02T03:03:08.214Z,0
2017-04-02T03:04:17.174Z,0
2017-04-02T03:05:26.127Z,0
2017-04-02T03:06:35.422Z,0
2017-04-02T03:07:44.374Z,0
2017-04-02T03:08:53.338Z,0
2017-04-02T03:10:02.293Z,0
2017-04-02T03:11:11.341Z,0
2017-04-02T03:12:20.602Z,0
2017-04-02T03:13:29.556Z,0
2017-04-02T03:14:38.594Z,0
2017-04-02T03:15:47.550Z,0
2017-04-02T03:16:56.513Z,0
2017-04-02T03:18:05.767Z,0
2017-04-02T03:19:14.722Z,0
2017-04-02T03:20:23.679Z,0
2017-04-02T03:21:32.635Z,0
2017-04-02T03:22:41.587Z,0
2017-04-02T03:23:50.838Z,0
2017-04-02T03:24:59.796Z,0
2017-04-02T03:26:08.756Z,0
2017-04-02T03:27:17.796Z,0
2017-04-02T03:28:26.801Z,0
2017-04-02T03:29:36.058Z,0
2017-04-02T03:30:45.016Z,0
2017-04-02T03:31:53.977Z,0
2017-04-02T03:33:02.932Z,0
2017-04-02T03:34:11.892Z,0
2017-04-02T03:35:20.854Z,0
2017-04-02T03:36:29.810Z,0
2017-04-02T03:37:38.768Z,0
2017-04-02T03:38:47.726Z,0
2017-04-02T03:39:56.982Z,0
2017-04-02T03:41:05.945Z,0
2017-04-02T03:42:14.902Z,0
2017-04-02T03:43:23.853Z,0
2017-04-02T03:44:32.809Z,0
2017-04-02T03:45:42.066Z,0
2017-04-02T03:46:51.020Z,0
2017-04-02T03:48:00.059Z,0
2017-04-02T03:49:09.021Z,0
2017-04-02T03:50:18.310Z,0
2017-04-02T03:51:27.569Z,0
2017-04-02T03:52:36.527Z,0
2017-04-02T03:53:48.530Z,0
2017-04-02T03:54:57.483Z,0
2017-04-02T03:56:06.437Z,0
2017-04-02T03:57:15.694Z,0
2017-04-02T03:58:24.652Z,0
2017-04-02T03:59:33.607Z,0
2017-04-02T04:00:42.566Z,0
2017-04-02T04:01:51.519Z,0
2017-04-02T04:03:00.781Z,0
2017-04-02T04:04:09.820Z,0
2017-04-02T04:05:18.777Z,0
2017-04-02T04:06:28.062Z,0
2017-04-02T04:07:37.024Z,0
2017-04-02T04:08:46.279Z,0
2017-04-02T04:09:55.245Z,0
2017-04-02T04:11:04.241Z,0
2017-04-02T04:12:13.199Z,0
2017-04-02T04:13:22.158Z,0
2017-04-02T04:14:31.362Z,0
2017-04-02T04:15:40.324Z,0
2017-04-02T04:16:49.277Z,0
2017-04-02T04:17:58.317Z,0
2017-04-02T04:19:07.273Z,0
2017-04-02T04:20:16.485Z,0
2017-04-02T04:21:25.443Z,0
2017-04-02T04:22:34.401Z,0
2017-04-02T04:23:43.352Z,0
2017-04-02T04:24:52.311Z,0
2017-04-02T04:26:01.520Z,0
2017-04-02T04:27:10.480Z,0
2017-04-02T04:28:19.482Z,0
2017-04-02T04:29:28.766Z,0
2017-04-02T04:30:37.722Z,0
2017-04-02T04:31:46.976Z,0
2017-04-02T04:32:55.935Z,0
2017-04-02T04:34:04.893Z,0
2017-04-02T04:35:13.858Z,0
2017-04-02T04:36:22.815Z,0
2017-04-02T04:37:32.072Z,0
2017-04-02T04:38:41.030Z,0
2017-04-02T04:39:49.997Z,0
2017-04-02T04:40:58.957Z,0
2017-04-02T04:42:07.916Z,0
2017-04-02T04:43:17.172Z,5
2017-04-02T04:44:26.130Z,5
2017-04-02T04:45:35.088Z,5
2017-04-02T04:46:44.046Z,5
2017-04-02T04:47:52.998Z,5
2017-04-02T04:49:02.346Z,5
2017-04-02T04:50:11.302Z,5
2017-04-02T04:51:20.261Z,5
2017-04-02T04:52:29.226Z,5
2017-04-02T04:53:38.186Z,10
2017-04-02T04:54:47.394Z,10
2017-04-02T04:55:56.356Z,10
2017-04-02T04:57:05.318Z,10
2017-04-02T04:58:14.644Z,10
2017-04-02T04:59:23.687Z,10
2017-04-02T05:00:33.545Z,10
2017-04-02T05:01:42.535Z,10
2017-04-02T05:02:51.573Z,10
2017-04-02T05:04:00.651Z,15
2017-04-02T05:05:09.609Z,15
2017-04-02T05:06:18.866Z,15
2017-04-02T05:07:27.818Z,15
2017-04-02T05:08:36.776Z,15
2017-04-02T05:09:45.732Z,15
2017-04-02T05:10:54.690Z,15
2017-04-02T05:12:03.946Z,20
2017-04-02T05:13:12.909Z,20
2017-04-02T05:14:21.859Z,20
2017-04-02T05:15:30.816Z,20
2017-04-02T05:16:39.775Z,25
2017-04-02T05:17:49.036Z,25
2017-04-02T05:18:57.992Z,25
2017-04-02T05:20:06.948Z,25
2017-04-02T05:21:15.906Z,25
2017-04-02T05:22:24.864Z,25
2017-04-02T05:23:34.132Z,30
2017-04-02T05:24:43.178Z,30
2017-04-02T05:25:52.132Z,30
2017-04-02T05:27:01.084Z,30
2017-04-02T05:28:10.085Z,30
2017-04-02T05:29:19.289Z,30
2017-04-02T05:30:28.249Z,35
2017-04-02T05:31:37.202Z,35
2017-04-02T05:32:46.155Z,35
2017-04-02T05:33:55.118Z,35
2017-04-02T05:35:04.458Z,35
2017-04-02T05:36:13.419Z,40
2017-04-02T05:37:22.375Z,40
2017-04-02T05:38:31.328Z,40
2017-04-02T05:39:40.286Z,40
2017-04-02T05:40:49.493Z,40
2017-04-02T05:41:58.574Z,45
2017-04-02T05:43:07.531Z,45
2017-04-02T05:44:16.490Z,45
2017-04-02T05:45:25.450Z,45
2017-04-02T05:46:34.703Z,45
2017-04-02T05:47:43.659Z,45
2017-04-02T05:48:52.702Z,50
2017-04-02T05:50:01.660Z,50
2017-04-02T05:51:10.615Z,50
2017-04-02T05:52:19.871Z,50
2017-04-02T05:53:28.827Z,50
2017-04-02T05:54:37.782Z,50
2017-04-02T05:55:46.739Z,50
2017-04-02T05:56:55.791Z,50
2017-04-02T05:58:05.053Z,50
2017-04-02T05:59:14.045Z,55
2017-04-02T06:00:23.001Z,55
2017-04-02T06:01:31.993Z,60
2017-04-02T06:02:41.035Z,60
2017-04-02T06:03:50.301Z,65
2017-04-02T06:04:59.263Z,70
2017-04-02T06:06:08.218Z,80
2017-04-02T06:07:17.195Z,90
2017-04-02T06:08:26.147Z,95
2017-04-02T06:09:35.440Z,95
2017-04-02T06:10:44.395Z,105
2017-04-02T06:11:53.356Z,110
2017-04-02T06:13:02.395Z,115
2017-04-02T06:14:11.349Z,105
2017-04-02T06:15:20.593Z,100
2017-04-02T06:16:29.554Z,95
2017-04-02T06:17:38.507Z,95
2017-04-02T06:18:47.461Z,100
2017-04-02T06:19:56.417Z,105
2017-04-02T06:21:05.718Z,105
2017-04-02T06:22:14.679Z,100
2017-04-02T06:23:23.635Z,95
2017-04-02T06:24:32.631Z,90
2017-04-02T06:25:41.588Z,85
2017-04-02T06:26:50.873Z,85
2017-04-02T06:28:00.123Z,85
2017-04-02T06:29:09.239Z,85
2017-04-02T06:30:18.199Z,80
2017-04-02T06:31:27.157Z,80
2017-04-02T06:32:36.416Z,80
2017-04-02T06:33:45.372Z,80
2017-04-02T06:34:54.333Z,65
2017-04-02T06:36:03.317Z,60
2017-04-02T06:37:12.298Z,60
2017-04-02T06:38:21.578Z,70
2017-04-02T06:39:30.567Z,75
2017-04-02T06:40:39.542Z,90
2017-04-02T06:41:48.517Z,100
2017-04-02T06:42:57.496Z,100
2017-04-02T06:44:06.779Z,85
2017-04-02T06:45:15.761Z,85
2017-04-02T06:46:24.826Z,85
2017-04-02T06:47:33.807Z,95
2017-04-02T06:48:42.790Z,95
2017-04-02T06:49:52.043Z,90
2017-04-02T06:51:00.997Z,100
2017-04-02T06:52:09.951Z,100
2017-04-02T06:53:18.915Z,105
2017-04-02T06:54:28.206Z,100
2017-04-02T06:55:37.412Z,100
2017-04-02T06:56:46.365Z,105
2017-04-02T06:57:55.318Z,105
2017-04-02T06:59:04.277Z,115
2017-04-02T07:00:13.236Z,125
2017-04-02T07:01:22.502Z,130
2017-04-02T07:02:31.462Z,120
2017-04-02T07:03:40.417Z,115
2017-04-02T07:04:49.376Z,105
2017-04-02T07:05:58.332Z,105
2017-04-02T07:07:07.589Z,105
2017-04-02T07:08:16.547Z,115
2017-04-02T07:09:25.505Z,125
2017-04-02T07:10:34.467Z,145
2017-04-02T07:11:43.419Z,165
2017-04-02T07:12:53.009Z,180
2017-04-02T07:14:02.286Z,185
2017-04-02T07:15:11.573Z,185
2017-04-02T07:16:20.529Z,175
2017-04-02T07:17:29.486Z,160
2017-04-02T07:18:38.747Z,125
2017-04-02T07:19:47.706Z,120
2017-04-02T07:20:56.664Z,130
2017-04-02T07:22:05.711Z,155
2017-04-02T07:23:14.665Z,175
2017-04-02T07:24:24.013Z,170
2017-04-02T07:25:32.977Z,165
2017-04-02T07:26:41.949Z,160
2017-04-02T07:27:50.914Z,150
2017-04-02T07:28:59.873Z,155
2017-04-02T07:30:09.136Z,165
2017-04-02T07:31:18.094Z,175
2017-04-02T07:32:27.052Z,170
2017-04-02T07:33:36.014Z,150
2017-04-02T07:34:44.971Z,125
2017-04-02T07:35:54.227Z,115
2017-04-02T07:37:03.192Z,110
2017-04-02T07:38:12.153Z,120
2017-04-02T07:39:21.113Z,115
2017-04-02T07:40:30.068Z,120
2017-04-02T07:41:39.325Z,140
2017-04-02T07:42:48.284Z,160
2017-04-02T07:43:57.245Z,165
2017-04-02T07:45:06.552Z,155
2017-04-02T07:46:15.763Z,150
2017-04-02T07:47:25.033Z,160
2017-04-02T07:48:34.005Z,155
2017-04-02T07:49:42.960Z,165
2017-04-02T07:50:52.343Z,175
2017-04-02T07:52:01.458Z,175
2017-04-02T07:53:10.915Z,170
2017-04-02T07:54:19.983Z,175
2017-04-02T07:55:29.255Z,175
2017-04-02T07:56:38.227Z,175
2017-04-02T07:57:47.185Z,170
2017-04-02T07:58:56.444Z,170
2017-04-02T08:00:05.407Z,155
2017-04-02T08:01:14.367Z,140
2017-04-02T08:02:23.414Z,135
2017-04-02T08:03:32.370Z,135
2017-04-02T08:04:41.644Z,145
2017-04-02T08:05:50.607Z,145
2017-04-02T08:06:59.590Z,150
2017-04-02T08:08:08.560Z,155
2017-04-02T08:09:17.521Z,155
2017-04-02T08:10:26.787Z,155
2017-04-02T08:11:35.755Z,155
2017-04-02T08:12:44.996Z,155
2017-04-02T08:13:54.754Z,145
2017-04-02T08:15:03.911Z,145
2017-04-02T08:16:13.676Z,160
2017-04-02T08:17:22.649Z,190
2017-04-02T08:18:31.607Z,205
2017-04-02T08:19:40.642Z,210
2017-04-02T08:20:49.602Z,195
2017-04-02T08:21:58.869Z,185
2017-04-02T08:23:08.016Z,180
2017-04-02T08:24:16.975Z,175
2017-04-02T08:25:25.930Z,185
2017-04-02T08:26:34.888Z,205
2017-04-02T08:27:44.183Z,205
2017-04-02T08:28:53.242Z,200
2017-04-02T08:30:02.389Z,205
2017-04-02T08:31:12.735Z,205
2017-04-02T08:32:21.807Z,215
2017-04-02T08:33:31.062Z,240
2017-04-02T08:34:40.021Z,245
2017-04-02T08:35:49.192Z,210
2017-04-02T08:36:58.189Z,190
2017-04-02T08:38:07.210Z,170
2017-04-02T08:39:16.466Z,160
2017-04-02T08:40:25.891Z,155
2017-04-02T08:41:35.125Z,160
2017-04-02T08:42:44.186Z,170
2017-04-02T08:43:53.147Z,185
2017-04-02T08:45:02.477Z,160
2017-04-02T08:46:11.617Z,140
2017-04-02T08:47:20.577Z,145
2017-04-02T08:48:29.535Z,165
2017-04-02T08:49:38.596Z,175
2017-04-02T08:50:48.110Z,165
2017-04-02T08:51:57.174Z,170
2017-04-02T08:53:06.223Z,195
2017-04-02T08:54:15.305Z,200
2017-04-02T08:55:24.473Z,200
2017-04-02T08:56:33.872Z,210
2017-04-02T08:57:42.918Z,195
2017-04-02T08:58:51.936Z,220
2017-04-02T09:00:01.136Z,225
2017-04-02T09:01:10.164Z,200
2017-04-02T09:02:19.484Z,180
2017-04-02T09:03:28.480Z,165
2017-04-02T09:04:37.439Z,175
2017-04-02T09:05:46.468Z,185
2017-04-02T09:06:55.522Z,190
2017-04-02T09:08:04.848Z,185
2017-04-02T09:09:14.199Z,175
2017-04-02T09:10:33.900Z,175
2017-04-02T09:11:51.301Z,175
2017-04-02T09:13:08.196Z,165
2017-04-02T09:14:24.057Z,145
2017-04-02T09:15:35.703Z,145
2017-04-02T09:16:44.717Z,165
2017-04-02T09:17:54.022Z,180
2017-04-02T09:19:03.287Z,190
2017-04-02T09:20:12.248Z,190
2017-04-02T09:21:21.371Z,195
2017-04-02T09:22:30.984Z,195
2017-04-02T09:23:39.938Z,200
2017-04-02T09:24:49.197Z,215
2017-04-02T09:25:58.168Z,230
2017-04-02T09:27:07.128Z,225
2017-04-02T09:28:16.094Z,215
2017-04-02T09:29:25.051Z,210
2017-04-02T09:30:34.311Z,205
2017-04-02T09:31:43.271Z,200
2017-04-02T09:32:52.229Z,210
2017-04-02T09:34:01.189Z,230
2017-04-02T09:35:10.479Z,245
2017-04-02T09:36:19.744Z,220
2017-04-02T09:37:28.707Z,215
2017-04-02T09:38:37.660Z,210
2017-04-02T09:39:46.623Z,210
2017-04-02T09:40:55.584Z,200
2017-04-02T09:42:04.950Z,185
2017-04-02T09:43:13.934Z,165
2017-04-02T09:44:22.917Z,170
2017-04-02T09:45:31.900Z,195
2017-04-02T09:46:40.887Z,215
2017-04-02T09:47:50.173Z,225
2017-04-02T09:48:59.153Z,210
2017-04-02T09:50:08.135Z,215
2017-04-02T09:51:17.123Z,230
2017-04-02T09:52:26.109Z,250
2017-04-02T09:53:35.391Z,220
2017-04-02T09:54:44.419Z,205
2017-04-02T09:55:53.397Z,245
2017-04-02T09:57:02.390Z,250
2017-04-02T09:58:11.383Z,230
2017-04-02T09:59:20.664Z,200
2017-04-02T10:00:29.647Z,155
2017-04-02T10:01:38.632Z,135
2017-04-02T10:02:47.610Z,130
2017-04-02T10:03:56.596Z,155
2017-04-02T10:05:06.152Z,185
2017-04-02T10:06:15.142Z,195
2017-04-02T10:07:24.147Z,240
2017-04-02T10:08:33.130Z,225
2017-04-02T10:09:42.109Z,250
2017-04-02T10:10:51.396Z,240
2017-04-02T10:12:00.377Z,210
2017-04-02T10:13:09.368Z,185
2017-04-02T10:14:18.344Z,160
2017-04-02T10:15:27.335Z,175
2017-04-02T10:16:36.614Z,185
2017-04-02T10:17:45.599Z,185
2017-04-02T10:18:54.908Z,195
2017-04-02T10:20:03.893Z,225
2017-04-02T10:21:12.878Z,200
2017-04-02T10:22:22.169Z,190
2017-04-02T10:23:31.156Z,185
2017-04-02T10:24:40.142Z,150
2017-04-02T10:25:49.126Z,180
2017-04-02T10:26:58.106Z,230
2017-04-02T10:28:07.391Z,205
2017-04-02T10:29:16.375Z,170
2017-04-02T10:30:25.353Z,150
2017-04-02T10:31:34.339Z,190
2017-04-02T10:32:43.320Z,200
2017-04-02T10:33:52.605Z,200
2017-04-02T10:35:01.583Z,210
2017-04-02T10:36:10.605Z,175
2017-04-02T10:37:19.597Z,150
2017-04-02T10:38:28.574Z,140
2017-04-02T10:39:37.854Z,130
2017-04-02T10:40:46.853Z,120
2017-04-02T10:41:55.921Z,115
2017-04-02T10:43:04.907Z,105
2017-04-02T10:44:14.173Z,80
2017-04-02T10:45:23.466Z,60
2017-04-02T10:46:32.548Z,60
2017-04-02T10:47:41.532Z,70
2017-04-02T10:48:50.512Z,95
2017-04-02T10:49:59.528Z,115
2017-04-02T10:51:08.769Z,115
2017-04-02T10:52:17.752Z,110
2017-04-02T10:53:26.741Z,115
2017-04-02T10:54:35.723Z,115
2017-04-02T10:55:44.710Z,115
2017-04-02T10:56:53.990Z,135
2017-04-02T10:58:03.037Z,165
2017-04-02T10:59:12.054Z,160
2017-04-02T11:00:21.055Z,140
2017-04-02T11:01:30.040Z,170
2017-04-02T11:02:39.412Z,160
2017-04-02T11:03:48.402Z,170
2017-04-02T11:04:57.394Z,180
2017-04-02T11:06:06.461Z,210
2017-04-02T11:07:15.447Z,225
2017-04-02T11:08:24.734Z,240
2017-04-02T11:09:33.709Z,205
2017-04-02T11:10:42.694Z,180
2017-04-02T11:11:51.678Z,180
2017-04-02T11:13:00.754Z,190
2017-04-02T11:14:10.033Z,195
2017-04-02T11:15:19.014Z,215
2017-04-02T11:16:27.996Z,220
2017-04-02T11:17:36.980Z,225
2017-04-02T11:18:45.969Z,240
2017-04-02T11:19:55.295Z,250
2017-04-02T11:21:04.604Z,255
2017-04-02T11:22:13.885Z,245
2017-04-02T11:23:22.897Z,210
2017-04-02T11:24:32.480Z,135
2017-04-02T11:25:42.111Z,85
2017-04-02T11:26:51.064Z,70
2017-04-02T11:28:01.338Z,55
2017-04-02T11:29:10.501Z,45
2017-04-02T11:30:19.517Z,45
2017-04-02T11:31:28.779Z,50
2017-04-02T11:32:37.741Z,60
2017-04-02T11:33:46.702Z,85
2017-04-02T11:34:55.663Z,120
2017-04-02T11:36:04.624Z,175
2017-04-02T11:37:13.883Z,180
2017-04-02T11:38:22.841Z,170
2017-04-02T11:39:31.804Z,155
2017-04-02T11:40:40.769Z,140
2017-04-02T11:41:49.735Z,145
2017-04-02T11:42:59.002Z,130
2017-04-02T11:44:07.961Z,145
2017-04-02T11:45:16.968Z,210
2017-04-02T11:46:25.931Z,230
2017-04-02T11:47:34.895Z,225
2017-04-02T11:48:44.242Z,230
2017-04-02T11:49:53.199Z,235
2017-04-02T11:51:02.159Z,230
2017-04-02T11:52:11.121Z,235
2017-04-02T11:53:20.117Z,235
2017-04-02T11:54:29.329Z,230
2017-04-02T11:55:38.290Z,185
2017-04-02T11:56:47.246Z,190
2017-04-02T11:57:56.211Z,155
2017-04-02T11:59:05.174Z,150
2017-04-02T12:00:14.441Z,135
2017-04-02T12:01:23.407Z,130
2017-04-02T12:02:32.415Z,135
2017-04-02T12:03:41.373Z,145
2017-04-02T12:04:50.339Z,155
2017-04-02T12:05:59.552Z,165
2017-04-02T12:07:08.517Z,175
2017-04-02T12:08:17.475Z,195
2017-04-02T12:09:26.434Z,210
2017-04-02T12:10:35.395Z,205
2017-04-02T12:11:44.661Z,205
2017-04-02T12:12:53.624Z,205
2017-04-02T12:14:02.609Z,200
2017-04-02T12:15:11.568Z,215
2017-04-02T12:16:20.528Z,220
2017-04-02T12:17:29.795Z,210
2017-04-02T12:18:38.844Z,195
2017-04-02T12:19:47.806Z,215
2017-04-02T12:20:56.772Z,210
2017-04-02T12:22:05.736Z,180
2017-04-02T12:23:15.003Z,180
2017-04-02T12:24:23.958Z,205
2017-04-02T12:25:32.920Z,195
2017-04-02T12:26:41.882Z,160
2017-04-02T12:27:50.844Z,170
2017-04-02T12:29:00.107Z,170
2017-04-02T12:30:09.069Z,150
2017-04-02T12:31:18.036Z,140
2017-04-02T12:32:26.997Z,145
2017-04-02T12:33:35.954Z,150
2017-04-02T12:34:45.227Z,160
2017-04-02T12:35:54.277Z,170
2017-04-02T12:37:03.324Z,190
2017-04-02T12:38:12.282Z,195
2017-04-02T12:39:21.244Z,185
2017-04-02T12:40:30.458Z,185
2017-04-02T12:41:39.510Z,190
2017-04-02T12:42:48.467Z,190
2017-04-02T12:43:57.428Z,200
2017-04-02T12:45:06.396Z,205
2017-04-02T12:46:15.751Z,185
2017-04-02T12:47:24.719Z,160
2017-04-02T12:48:33.679Z,120
2017-04-02T12:49:42.639Z,120
2017-04-02T12:50:51.599Z,140
2017-04-02T12:52:00.957Z,175
2017-04-02T12:53:09.920Z,180
2017-04-02T12:54:18.884Z,180
2017-04-02T12:55:27.845Z,180
2017-04-02T12:56:36.810Z,160
2017-04-02T12:57:46.072Z,150
2017-04-02T12:58:55.032Z,130
2017-04-02T13:00:03.994Z,110
2017-04-02T13:01:12.991Z,105
2017-04-02T13:02:21.956Z,105
2017-04-02T13:03:31.221Z,100
2017-04-02T13:04:40.181Z,75
2017-04-02T13:05:49.139Z,75
2017-04-02T13:06:58.093Z,105
2017-04-02T13:08:07.056Z,105
2017-04-02T13:09:16.594Z,105
2017-04-02T13:10:25.552Z,105
2017-04-02T13:11:34.558Z,105
2017-04-02T13:12:43.529Z,105
2017-04-02T13:13:52.493Z,100
2017-04-02T13:15:01.759Z,105
2017-04-02T13:16:10.723Z,105
2017-04-02T13:17:19.684Z,105
2017-04-02T13:18:28.644Z,110
2017-04-02T13:19:37.648Z,110
2017-04-02T13:20:46.914Z,115
2017-04-02T13:21:55.876Z,120
2017-04-02T13:23:04.835Z,130
2017-04-02T13:24:13.796Z,155
2017-04-02T13:25:22.756Z,130
2017-04-02T13:26:32.017Z,135
2017-04-02T13:27:40.975Z,125
2017-04-02T13:28:49.940Z,140
2017-04-02T13:29:58.898Z,120
2017-04-02T13:31:07.862Z,100
2017-04-02T13:32:17.127Z,90
2017-04-02T13:33:26.090Z,85
2017-04-02T13:34:35.047Z,100
2017-04-02T13:35:44.044Z,95
2017-04-02T13:36:53.016Z,105
2017-04-02T13:38:02.276Z,110
2017-04-02T13:39:11.240Z,140
2017-04-02T13:40:20.201Z,145
2017-04-02T13:41:29.168Z,130
2017-04-02T13:42:38.131Z,115
2017-04-02T13:43:47.337Z,80
2017-04-02T13:44:56.295Z,75
2017-04-02T13:46:05.582Z,70
2017-04-02T13:47:14.861Z,75
2017-04-02T13:48:23.858Z,95
2017-04-02T13:49:33.113Z,75
2017-04-02T13:50:42.073Z,90
2017-04-02T13:51:51.081Z,110
2017-04-02T13:53:00.048Z,115
2017-04-02T13:54:09.055Z,115
2017-04-02T13:55:18.315Z,120
2017-04-02T13:56:27.281Z,120
2017-04-02T13:57:36.245Z,120
2017-04-02T13:58:45.203Z,125
2017-04-02T13:59:54.494Z,130
2017-04-02T14:01:03.703Z,105
2017-04-02T14:02:12.761Z,115
2017-04-02T14:03:21.721Z,125
2017-04-02T14:04:31.101Z,135
2017-04-02T14:05:40.062Z,135
2017-04-02T14:06:49.276Z,130
2017-04-02T14:07:58.234Z,115
2017-04-02T14:09:07.196Z,90
2017-04-02T14:10:16.156Z,100
2017-04-02T14:11:25.114Z,125
2017-04-02T14:12:34.374Z,105
2017-04-02T14:13:43.333Z,105
2017-04-02T14:14:52.383Z,110
2017-04-02T14:16:01.342Z,125
2017-04-02T14:17:10.308Z,135
2017-04-02T14:18:19.626Z,140
2017-04-02T14:19:28.588Z,170
2017-04-02T14:20:37.551Z,150
2017-04-02T14:21:46.520Z,140
2017-04-02T14:22:55.479Z,125
2017-04-02T14:24:04.744Z,115
2017-04-02T14:25:13.713Z,110
2017-04-02T14:26:22.675Z,105
2017-04-02T14:27:31.642Z,105
2017-04-02T14:28:40.616Z,105
2017-04-02T14:29:49.878Z,105
2017-04-02T14:30:58.840Z,105
2017-04-02T14:32:07.802Z,110
2017-04-02T14:33:16.772Z,130
2017-04-02T14:34:25.739Z,145
2017-04-02T14:35:34.999Z,150
2017-04-02T14:36:43.958Z,135
2017-04-02T14:37:53.012Z,115
2017-04-02T14:39:01.974Z,75
2017-04-02T14:40:10.944Z,65
2017-04-02T14:41:20.206Z,65
2017-04-02T14:42:29.171Z,90
2017-04-02T14:43:38.135Z,95
2017-04-02T14:44:47.450Z,100
2017-04-02T14:45:56.738Z,105
2017-04-02T14:47:06.039Z,105
2017-04-02T14:48:14.999Z,100
2017-04-02T14:49:23.956Z,100
2017-04-02T14:50:32.921Z,110
2017-04-02T14:51:41.885Z,105
2017-04-02T14:52:51.148Z,135
2017-04-02T14:54:00.195Z,135
2017-04-02T14:55:09.158Z,135
2017-04-02T14:56:18.124Z,105
2017-04-02T14:57:27.087Z,105
2017-04-02T14:58:36.433Z,80
2017-04-02T14:59:45.481Z,90
2017-04-02T15:00:54.441Z,135
2017-04-02T15:02:03.406Z,135
2017-04-02T15:03:12.374Z,80
2017-04-02T15:04:21.635Z,75
2017-04-02T15:05:30.592Z,85
2017-04-02T15:06:39.558Z,80
2017-04-02T15:07:48.519Z,80
2017-04-02T15:08:57.478Z,80
2017-04-02T15:10:06.738Z,80
2017-04-02T15:11:15.699Z,75
2017-04-02T15:12:24.664Z,65
2017-04-02T15:13:33.622Z,50
2017-04-02T15:14:42.580Z,50
2017-04-02T15:15:51.846Z,50
2017-04-02T15:17:00.807Z,50
2017-04-02T15:18:09.760Z,50
2017-04-02T15:19:18.727Z,50
2017-04-02T15:20:27.686Z,55
2017-04-02T15:21:36.947Z,50
2017-04-02T15:22:45.905Z,50
2017-04-02T15:23:54.869Z,50
2017-04-02T15:25:03.830Z,50
2017-04-02T15:26:12.793Z,55
2017-04-02T15:27:22.056Z,75
2017-04-02T15:28:31.013Z,75
2017-04-02T15:29:39.971Z,65
2017-04-02T15:30:48.933Z,65
2017-04-02T15:31:57.896Z,55
2017-04-02T15:33:07.153Z,50
2017-04-02T15:34:16.108Z,50
2017-04-02T15:35:25.067Z,45
2017-04-02T15:36:34.035Z,45
2017-04-02T15:37:42.993Z,50
2017-04-02T15:38:52.267Z,50
2017-04-02T15:40:01.223Z,60
2017-04-02T15:41:10.180Z,65
2017-04-02T15:42:19.144Z,65
2017-04-02T15:43:28.105Z,65
2017-04-02T15:44:37.367Z,60
2017-04-02T15:45:46.330Z,55
2017-04-02T15:46:55.292Z,55
2017-04-02T15:48:04.252Z,55
2017-04-02T15:49:13.210Z,55
2017-04-02T15:50:22.645Z,50
2017-04-02T15:51:31.694Z,50
2017-04-02T15:52:40.652Z,50
2017-04-02T15:53:49.614Z,50
2017-04-02T15:54:58.584Z,50
2017-04-02T15:56:07.846Z,50
2017-04-02T15:57:16.808Z,50
2017-04-02T15:58:25.768Z,50
2017-04-02T15:59:34.728Z,50
2017-04-02T16:00:43.688Z,50
2017-04-02T16:01:53.039Z,50
2017-04-02T16:03:01.999Z,50
2017-04-02T16:04:11.053Z,45
2017-04-02T16:05:20.102Z,45
2017-04-02T16:06:29.069Z,45
2017-04-02T16:07:38.334Z,50
2017-04-02T16:08:47.307Z,45
2017-04-02T16:09:56.268Z,40
2017-04-02T16:11:05.231Z,40
2017-04-02T16:12:14.190Z,45
2017-04-02T16:13:23.452Z,45
2017-04-02T16:14:32.412Z,45
2017-04-02T16:15:41.457Z,45
2017-04-02T16:16:50.418Z,45
2017-04-02T16:17:59.380Z,45
2017-04-02T16:19:08.651Z,45
2017-04-02T16:20:17.607Z,45